Startpagina
METAR-TAF:

METAR-TAF

Vliegvelden :

Valledupar, Colombia

breedte: 10-26N, lengte: 073-15W, hoogte: 138 m

Actueel weer

Dit bericht is 1 uur en het 1 minuten geleden gemaakt, om 22:00 UTC
Wind 5 kt uit het westzuidwesten
Temperatuur 36°C
Vochtigheid 37%
Druk 1008 hPa
Zicht 10 km of meer
Weinig wolken op 2500 ft, Stapelwolken.
Verspreide wolken op 20000 ft

METAR: SKVP 222200Z 24005KT 9999 FEW025TCU SCT200 36/19 A2976 RMK TCU/E

Tijdstip: 18:01 (23:01 UTC)


TAF: ontbreekt

Waarnemingen en weersverwachtingen van meer dan 4000 vliegvelden (METAR en TAF).

De beschikbare stations zijn de gele en rode punten op de kaart.

Ga met uw muis naar het station om de naam te zien.

Klik dan om waarnemingen en weersverwachtingen te zien.

kaart wijzigen: klik op de groene knoppen met een zwart kruis om in te zoomen, op de groene knop met een streepje om uit te zoomen of op de groene pijlen voor aangrenzende kaarten.


METAR-TAF: